createdAt,value
2023-04-29T00:02:20.184Z,97280.81
2023-04-29T00:04:48.103Z,97280.19
2023-04-29T00:07:16.039Z,97267.59
2023-04-29T00:09:43.833Z,97273.78
2023-04-29T00:12:11.380Z,97270.69
2023-04-29T00:14:38.843Z,97273.19
2023-04-29T00:17:06.637Z,97267.16
2023-04-29T00:19:34.159Z,97268.41
2023-04-29T00:22:01.825Z,97266.34
2023-04-29T00:24:29.792Z,97263.22
2023-04-29T00:26:57.310Z,97270.06
2023-04-29T00:29:24.873Z,97266.34
2023-04-29T00:31:52.405Z,97271.50
2023-04-29T00:34:20.326Z,97271.09
2023-04-29T00:36:47.833Z,97266.38
2023-04-29T00:39:15.557Z,97269.47
2023-04-29T00:41:43.171Z,97272.78
2023-04-29T00:44:11.455Z,97262.22
2023-04-29T00:46:39.176Z,97280.44
2023-04-29T00:49:08.221Z,97272.38
2023-04-29T00:51:37.513Z,97276.09
2023-04-29T00:54:05.633Z,97268.44
2023-04-29T00:56:37.431Z,97277.13
2023-04-29T00:59:05.890Z,97280.88
2023-04-29T01:01:33.754Z,97279.03
2023-04-29T01:04:02.049Z,97281.94
2023-04-29T01:06:59.154Z,97277.59
2023-04-29T01:10:00.376Z,97275.94
2023-04-29T01:12:43.216Z,97277.81
2023-04-29T01:15:28.057Z,97285.66
2023-04-29T01:18:11.927Z,97289.16
2023-04-29T01:20:40.992Z,97285.25
2023-04-29T01:23:08.518Z,97280.03
2023-04-29T01:25:38.215Z,97281.91
2023-04-29T01:29:15.707Z,97287.09
2023-04-29T01:32:08.916Z,97281.72
2023-04-29T01:35:39.126Z,97289.97
2023-04-29T01:38:15.443Z,97295.16
2023-04-29T01:41:02.908Z,97291.44
2023-04-29T01:43:34.198Z,97287.31
2023-04-29T01:46:11.611Z,97284.84
2023-04-29T01:48:40.612Z,97285.22
2023-04-29T01:51:08.454Z,97289.59
2023-04-29T01:53:35.986Z,97278.00
2023-04-29T01:56:03.735Z,97284.00
2023-04-29T01:58:44.268Z,97280.91
2023-04-29T02:01:41.213Z,97285.44
2023-04-29T02:04:08.929Z,97283.78
2023-04-29T02:06:37.746Z,97282.34
2023-04-29T02:09:06.313Z,97283.78
2023-04-29T02:11:35.311Z,97277.81
2023-04-29T02:14:02.954Z,97281.31
2023-04-29T02:16:30.735Z,97282.97
2023-04-29T02:19:02.000Z,97287.50
2023-04-29T02:21:29.543Z,97284.00
2023-04-29T02:23:57.040Z,97286.91
2023-04-29T02:26:25.756Z,97287.72
2023-04-29T02:28:57.371Z,97287.31
2023-04-29T02:31:25.094Z,97295.19
2023-04-29T02:33:54.227Z,97302.00
2023-04-29T02:36:21.805Z,97289.16
2023-04-29T02:38:55.195Z,97293.91
2023-04-29T02:41:23.023Z,97292.91
2023-04-29T02:43:50.636Z,97292.28
2023-04-29T02:46:18.886Z,97292.09
2023-04-29T02:48:46.451Z,97297.66
2023-04-29T02:51:15.220Z,97294.16
2023-04-29T02:53:42.768Z,97297.03
2023-04-29T02:56:10.319Z,97300.34
2023-04-29T02:58:37.861Z,97301.19
2023-04-29T03:01:05.445Z,97294.97
2023-04-29T03:03:33.097Z,97299.50
2023-04-29T03:06:00.790Z,97302.59
2023-04-29T03:08:28.509Z,97298.91
2023-04-29T03:10:56.718Z,97301.19
2023-04-29T03:13:24.689Z,97299.72
2023-04-29T03:15:52.439Z,97299.72
2023-04-29T03:18:19.991Z,97305.09
2023-04-29T03:20:48.818Z,97302.00
2023-04-29T03:23:16.283Z,97305.09
2023-04-29T03:25:44.268Z,97307.97
2023-04-29T03:28:11.810Z,97308.19
2023-04-29T03:30:39.587Z,97305.31
2023-04-29T03:33:07.303Z,97294.56
2023-04-29T03:35:34.996Z,97293.31
2023-04-29T03:38:22.350Z,97300.94
2023-04-29T03:40:50.316Z,97294.75
2023-04-29T03:43:18.734Z,97296.16
2023-04-29T03:45:46.562Z,97297.41
2023-04-29T03:48:18.050Z,97292.25
2023-04-29T03:50:46.013Z,97298.03
2023-04-29T03:53:13.942Z,97298.44
2023-04-29T03:55:41.634Z,97301.94
2023-04-29T03:58:11.117Z,97304.44
2023-04-29T04:00:38.850Z,97304.00
2023-04-29T04:03:11.726Z,97306.28
2023-04-29T04:05:39.648Z,97303.78
2023-04-29T04:08:13.260Z,97314.72
2023-04-29T04:10:51.871Z,97312.03
2023-04-29T04:13:49.734Z,97312.03
2023-04-29T04:16:18.108Z,97316.78
2023-04-29T04:18:45.673Z,97315.34
2023-04-29T04:21:13.673Z,97336.13
2023-04-29T04:23:44.768Z,97339.88
2023-04-29T04:26:15.810Z,97334.72
2023-04-29T04:28:56.020Z,97336.97
2023-04-29T04:31:34.900Z,97344.56
2023-04-29T04:34:02.505Z,97350.13
2023-04-29T04:36:32.651Z,97356.75
2023-04-29T04:39:00.291Z,97354.06
2023-04-29T04:41:27.866Z,97352.63
2023-04-29T04:43:55.357Z,97350.19
2023-04-29T04:46:43.334Z,97362.97
2023-04-29T04:49:17.125Z,97362.72
2023-04-29T04:51:51.494Z,97361.44
2023-04-29T04:54:19.251Z,97365.00
2023-04-29T04:56:52.123Z,97368.50
2023-04-29T04:59:19.647Z,97371.34
2023-04-29T05:01:47.580Z,97371.22
2023-04-29T05:04:15.632Z,97370.59
2023-04-29T05:06:43.322Z,97386.81
2023-04-29T05:09:10.860Z,97392.19
2023-04-29T05:11:38.382Z,97386.91
2023-04-29T05:14:10.484Z,97397.31
2023-04-29T05:16:38.283Z,97405.03
2023-04-29T05:19:05.962Z,97400.31
2023-04-29T05:21:37.427Z,97410.22
2023-04-29T05:24:06.101Z,97416.75
2023-04-29T05:26:33.594Z,97408.91
2023-04-29T05:29:02.413Z,97417.81
2023-04-29T05:31:35.609Z,97417.19
2023-04-29T05:34:05.699Z,97413.03
2023-04-29T05:36:33.269Z,97422.75
2023-04-29T05:39:00.739Z,97424.66
2023-04-29T05:41:28.504Z,97430.03
2023-04-29T05:43:55.935Z,97423.63
2023-04-29T05:46:23.694Z,97433.06
2023-04-29T05:48:51.624Z,97432.47
2023-04-29T05:51:19.336Z,97445.09
2023-04-29T05:53:46.886Z,97449.84
2023-04-29T05:56:14.351Z,97447.91
2023-04-29T05:58:41.944Z,97449.19
2023-04-29T06:01:09.462Z,97455.81
2023-04-29T06:03:37.381Z,97459.75
2023-04-29T06:06:37.721Z,97464.31
2023-04-29T06:09:27.846Z,97471.19
2023-04-29T06:11:59.806Z,97467.84
2023-04-29T06:14:27.337Z,97479.69
2023-04-29T06:16:55.738Z,97476.59
2023-04-29T06:19:25.230Z,97480.31
2023-04-29T06:21:53.473Z,97490.63
2023-04-29T06:24:20.970Z,97490.63
2023-04-29T06:26:48.763Z,97493.25
2023-04-29T06:29:16.969Z,97496.75
2023-04-29T06:31:44.656Z,97497.19
2023-04-29T06:34:14.120Z,97503.88
2023-04-29T06:37:16.596Z,97514.22
2023-04-29T06:40:03.362Z,97506.75
2023-04-29T06:42:52.786Z,97515.47
2023-04-29T06:45:48.781Z,97515.97
2023-04-29T06:48:27.902Z,97520.84
2023-04-29T06:50:57.719Z,97518.94
2023-04-29T06:53:25.330Z,97520.53
2023-04-29T06:55:52.853Z,97524.28
2023-04-29T06:58:21.193Z,97532.41
2023-04-29T07:00:50.555Z,97528.91
2023-04-29T07:03:19.136Z,97535.22
2023-04-29T07:05:46.827Z,97537.38
2023-04-29T07:08:14.607Z,97527.66
2023-04-29T07:10:42.325Z,97538.47
2023-04-29T07:13:09.801Z,97534.16
2023-04-29T07:15:37.722Z,97543.91
2023-04-29T07:18:06.483Z,97539.75
2023-04-29T07:20:37.058Z,97550.25
2023-04-29T07:23:05.364Z,97555.06
2023-04-29T07:25:33.771Z,97556.06
2023-04-29T07:28:01.557Z,97554.59
2023-04-29T07:30:29.054Z,97558.13
2023-04-29T07:32:56.869Z,97559.59
2023-04-29T07:35:25.222Z,97563.47
2023-04-29T07:37:52.772Z,97565.34
2023-04-29T07:40:20.680Z,97565.94
2023-04-29T07:42:48.579Z,97571.88
2023-04-29T07:45:16.298Z,97573.38
2023-04-29T07:47:45.470Z,97562.94
2023-04-29T07:50:13.252Z,97572.19
2023-04-29T07:52:40.985Z,97571.66
2023-04-29T07:55:09.657Z,97575.69
2023-04-29T07:57:37.334Z,97581.31
2023-04-29T08:00:05.936Z,97585.09
2023-04-29T08:02:42.588Z,97579.97
2023-04-29T08:05:12.608Z,97582.06
2023-04-29T08:07:40.330Z,97588.19
2023-04-29T08:10:08.698Z,97588.19
2023-04-29T08:12:38.063Z,97594.22
2023-04-29T08:15:07.783Z,97585.69
2023-04-29T08:17:37.784Z,97588.47
2023-04-29T08:20:07.461Z,97590.69
2023-04-29T08:22:35.193Z,97600.31
2023-04-29T08:25:05.080Z,97597.53
2023-04-29T08:27:32.617Z,97606.53
2023-04-29T08:30:00.168Z,97613.38
2023-04-29T08:32:27.703Z,97610.31
2023-04-29T08:34:55.799Z,97604.63
2023-04-29T08:37:23.440Z,97603.69
2023-04-29T08:39:50.963Z,97607.00
2023-04-29T08:42:34.870Z,97603.56
2023-04-29T08:45:03.871Z,97611.84
2023-04-29T08:47:33.187Z,97614.44
2023-04-29T08:50:05.621Z,97610.31
2023-04-29T08:52:33.528Z,97612.19
2023-04-29T08:55:05.568Z,97614.00
2023-04-29T08:57:40.257Z,97612.81
2023-04-29T09:00:11.565Z,97611.19
2023-04-29T09:02:53.551Z,97611.69
2023-04-29T09:05:21.872Z,97619.91
2023-04-29T09:07:51.665Z,97618.41
2023-04-29T09:10:19.912Z,97617.63
2023-04-29T09:12:47.420Z,97623.56
2023-04-29T09:15:15.036Z,97620.72
2023-04-29T09:17:47.515Z,97616.63
2023-04-29T09:20:21.090Z,97617.88
2023-04-29T09:22:58.407Z,97622.50
2023-04-29T09:25:27.128Z,97617.00
2023-04-29T09:27:55.839Z,97625.50
2023-04-29T09:30:23.953Z,97618.06
2023-04-29T09:33:10.384Z,97625.72
2023-04-29T09:35:41.018Z,97624.25
2023-04-29T09:38:14.444Z,97623.69
2023-04-29T09:40:58.236Z,97623.47
2023-04-29T09:43:27.004Z,97628.59
2023-04-29T09:45:54.740Z,97634.50
2023-04-29T09:48:22.341Z,97631.13
2023-04-29T09:51:04.342Z,97639.94
2023-04-29T09:53:32.242Z,97636.94
2023-04-29T09:56:03.584Z,97639.97
2023-04-29T09:58:37.133Z,97647.03
2023-04-29T10:01:05.216Z,97638.41
2023-04-29T10:03:42.721Z,97637.53
2023-04-29T10:06:10.713Z,97638.97
2023-04-29T10:08:41.320Z,97646.03
2023-04-29T10:11:11.826Z,97651.22
2023-04-29T10:13:42.777Z,97648.75
2023-04-29T10:16:30.135Z,97647.19
2023-04-29T10:19:03.805Z,97645.81
2023-04-29T10:21:32.071Z,97646.47
2023-04-29T10:24:01.996Z,97646.00
2023-04-29T10:26:32.002Z,97646.53
2023-04-29T10:29:00.955Z,97647.19
2023-04-29T10:31:30.012Z,97643.25
2023-04-29T10:33:58.964Z,97642.91
2023-04-29T10:36:30.265Z,97634.63
2023-04-29T10:39:01.648Z,97637.28
2023-04-29T10:41:47.292Z,97637.47
2023-04-29T10:44:14.887Z,97631.28
2023-04-29T10:46:42.485Z,97623.25
2023-04-29T10:49:11.313Z,97629.44
2023-04-29T10:51:45.124Z,97626.81
2023-04-29T10:54:25.472Z,97629.13
2023-04-29T10:56:54.335Z,97618.53
2023-04-29T10:59:42.785Z,97621.84
2023-04-29T11:02:11.083Z,97616.03
2023-04-29T11:05:29.246Z,97619.38
2023-04-29T11:08:13.245Z,97619.53
2023-04-29T11:10:41.875Z,97625.38
2023-04-29T11:13:28.412Z,97612.13
2023-04-29T11:16:06.722Z,97616.28
2023-04-29T11:18:36.228Z,97626.03
2023-04-29T11:21:06.486Z,97622.47
2023-04-29T11:23:39.300Z,97615.22
2023-04-29T11:26:07.106Z,97611.94
2023-04-29T11:28:34.872Z,97617.50
2023-04-29T11:31:03.695Z,97618.53
2023-04-29T11:33:33.695Z,97619.16
2023-04-29T11:36:01.362Z,97616.47
2023-04-29T11:38:30.348Z,97621.22
2023-04-29T11:40:59.666Z,97628.25
2023-04-29T11:43:27.139Z,97628.44
2023-04-29T11:45:54.683Z,97622.44
2023-04-29T11:48:24.970Z,97623.66
2023-04-29T11:50:57.892Z,97622.28
2023-04-29T11:53:27.774Z,97634.88
2023-04-29T11:55:56.035Z,97628.88
2023-04-29T11:58:24.906Z,97638.81
2023-04-29T12:00:52.391Z,97640.03
2023-04-29T12:03:21.671Z,97641.97
2023-04-29T12:05:57.162Z,97634.09
2023-04-29T12:08:28.058Z,97636.53
2023-04-29T12:10:58.347Z,97633.25
2023-04-29T12:13:30.001Z,97641.53
2023-04-29T12:15:58.757Z,97646.94
2023-04-29T12:18:28.820Z,97643.00
2023-04-29T12:20:56.819Z,97645.06
2023-04-29T12:23:28.288Z,97641.72
2023-04-29T12:25:59.525Z,97641.09
2023-04-29T12:28:27.726Z,97642.97
2023-04-29T12:30:55.402Z,97646.91
2023-04-29T12:33:26.743Z,97642.78
2023-04-29T12:35:59.309Z,97650.28
2023-04-29T12:38:31.314Z,97645.91
2023-04-29T12:41:04.460Z,97647.75
2023-04-29T12:43:33.712Z,97650.63
2023-04-29T12:46:08.713Z,97663.50
2023-04-29T12:48:43.758Z,97660.56
2023-04-29T12:51:11.951Z,97657.84
2023-04-29T12:53:39.678Z,97662.19
2023-04-29T12:56:07.808Z,97660.34
2023-04-29T12:58:35.749Z,97656.03
2023-04-29T13:01:03.339Z,97655.66
2023-04-29T13:03:31.036Z,97662.03
2023-04-29T13:05:59.227Z,97662.84
2023-04-29T13:08:27.338Z,97652.94
2023-04-29T13:10:54.909Z,97656.88
2023-04-29T13:13:22.372Z,97661.66
2023-04-29T13:15:49.884Z,97662.66
2023-04-29T13:18:17.402Z,97660.13
2023-04-29T13:20:44.908Z,97662.00
2023-04-29T13:23:12.458Z,97660.53
2023-04-29T13:25:40.099Z,97674.06
2023-04-29T13:28:07.584Z,97667.00
2023-04-29T13:30:35.983Z,97665.75
2023-04-29T13:33:09.888Z,97663.94
2023-04-29T13:35:41.430Z,97664.31
2023-04-29T13:38:09.261Z,97659.34
2023-04-29T13:40:40.662Z,97664.16
2023-04-29T13:43:15.048Z,97671.81
2023-04-29T13:45:48.438Z,97674.72
2023-04-29T13:48:50.242Z,97678.00
2023-04-29T13:51:49.028Z,97672.19
2023-04-29T14:02:14.957Z,97677.63
2023-04-29T14:04:15.434Z,97677.00
2023-04-29T14:06:46.138Z,97680.84
2023-04-29T14:09:14.921Z,97689.53
2023-04-29T14:11:42.489Z,97685.59
2023-04-29T14:14:10.127Z,97686.00
2023-04-29T14:16:37.825Z,97690.19
2023-04-29T14:19:06.214Z,97684.25
2023-04-29T14:21:34.228Z,97687.41
2023-04-29T14:24:03.352Z,97691.63
2023-04-29T14:26:32.028Z,97693.28
2023-04-29T14:29:00.423Z,97690.59
2023-04-29T14:31:30.808Z,97694.31
2023-04-29T14:33:59.323Z,97694.19
2023-04-29T14:36:28.063Z,97699.97
2023-04-29T14:38:55.890Z,97695.81
2023-04-29T14:41:23.541Z,97705.47
2023-04-29T14:43:54.033Z,97706.94
2023-04-29T14:46:22.410Z,97704.34
2023-04-29T14:48:50.059Z,97704.19
2023-04-29T14:51:17.619Z,97711.09
2023-04-29T14:53:45.250Z,97712.41
2023-04-29T14:56:12.889Z,97720.28
2023-04-29T14:58:41.315Z,97712.94
2023-04-29T15:01:09.067Z,97719.63
2023-04-29T15:03:43.499Z,97714.72
2023-04-29T15:06:12.925Z,97708.06
2023-04-29T15:08:40.574Z,97721.78
2023-04-29T15:11:08.106Z,97721.16
2023-04-29T15:13:35.930Z,97719.50
2023-04-29T15:16:04.328Z,97723.09
2023-04-29T15:18:32.044Z,97725.41
2023-04-29T15:20:59.710Z,97722.69
2023-04-29T15:23:27.230Z,97724.78
2023-04-29T15:25:54.920Z,97724.16
2023-04-29T15:28:24.525Z,97730.53
2023-04-29T15:30:52.267Z,97730.75
2023-04-29T15:33:19.875Z,97736.72
2023-04-29T15:35:47.452Z,97731.34
2023-04-29T15:38:15.159Z,97737.03
2023-04-29T15:40:42.736Z,97736.63
2023-04-29T15:43:10.357Z,97733.09
2023-04-29T15:45:37.972Z,97739.84
2023-04-29T15:48:06.135Z,97735.16
2023-04-29T15:50:33.748Z,97735.06
2023-04-29T15:53:01.445Z,97736.31
2023-04-29T15:55:29.057Z,97743.41
2023-04-29T15:57:56.530Z,97752.13
2023-04-29T16:00:24.223Z,97745.66
2023-04-29T16:02:51.731Z,97749.75
2023-04-29T16:05:19.408Z,97752.72
2023-04-29T16:07:46.994Z,97749.13
2023-04-29T16:10:14.569Z,97750.84
2023-04-29T16:12:42.992Z,97755.81
2023-04-29T16:15:10.939Z,97754.41
2023-04-29T16:17:38.583Z,97756.06
2023-04-29T16:20:07.438Z,97755.41
2023-04-29T16:22:35.074Z,97751.41
2023-04-29T16:25:03.910Z,97751.97
2023-04-29T16:27:31.533Z,97749.84
2023-04-29T16:29:59.396Z,97758.59
2023-04-29T16:32:28.732Z,97755.13
2023-04-29T16:34:56.290Z,97761.03
2023-04-29T16:37:23.816Z,97766.03
2023-04-29T16:39:51.644Z,97761.28
2023-04-29T16:42:19.556Z,97760.28
2023-04-29T16:44:47.694Z,97761.91
2023-04-29T16:47:15.469Z,97767.13
2023-04-29T16:49:42.975Z,97759.81
2023-04-29T16:52:12.532Z,97762.28
2023-04-29T16:54:41.114Z,97764.88
2023-04-29T16:57:08.644Z,97764.81
2023-04-29T16:59:36.186Z,97762.78
2023-04-29T17:02:03.956Z,97767.41
2023-04-29T17:04:31.848Z,97764.50
2023-04-29T17:07:01.433Z,97769.59
2023-04-29T17:09:29.193Z,97768.31
2023-04-29T17:11:57.364Z,97772.69
2023-04-29T17:14:24.846Z,97767.06
2023-04-29T17:16:52.347Z,97769.38
2023-04-29T17:19:19.952Z,97769.50
2023-04-29T17:21:47.426Z,97768.47
2023-04-29T17:24:14.991Z,97764.91
2023-04-29T17:26:42.478Z,97768.63
2023-04-29T17:29:12.372Z,97768.03
2023-04-29T17:31:47.078Z,97773.06
2023-04-29T17:34:18.655Z,97781.28
2023-04-29T17:36:47.430Z,97774.25
2023-04-29T17:39:15.282Z,97768.00
2023-04-29T17:41:43.147Z,97770.91
2023-04-29T17:44:11.040Z,97765.78
2023-04-29T17:46:40.034Z,97773.09
2023-04-29T17:49:07.590Z,97774.66
2023-04-29T17:51:35.116Z,97779.25
2023-04-29T17:54:06.342Z,97774.06
2023-04-29T17:56:35.046Z,97783.03
2023-04-29T17:59:06.845Z,97779.19
2023-04-29T18:01:35.778Z,97784.13
2023-04-29T18:04:03.805Z,97787.63
2023-04-29T18:06:31.726Z,97786.59
2023-04-29T18:08:59.388Z,97787.78
2023-04-29T18:11:27.168Z,97799.28
2023-04-29T18:13:54.776Z,97801.00
2023-04-29T18:16:22.506Z,97793.09
2023-04-29T18:18:56.594Z,97799.34
2023-04-29T18:21:28.538Z,97798.41
2023-04-29T18:23:56.799Z,97797.56
2023-04-29T18:26:24.903Z,97798.31
2023-04-29T18:28:52.454Z,97795.13
2023-04-29T18:31:20.217Z,97789.94
2023-04-29T18:33:47.744Z,97795.47
2023-04-29T18:36:15.271Z,97790.19
2023-04-29T18:38:43.477Z,97793.66
2023-04-29T18:41:11.957Z,97798.53
2023-04-29T18:43:39.693Z,97790.94
2023-04-29T18:46:07.272Z,97794.31
2023-04-29T18:48:35.947Z,97804.84
2023-04-29T18:51:04.361Z,97800.59
2023-04-29T18:53:32.079Z,97804.56
2023-04-29T18:55:59.572Z,97803.34
2023-04-29T18:58:27.429Z,97813.09
2023-04-29T19:00:55.134Z,97812.06
2023-04-29T19:03:22.672Z,97812.22
2023-04-29T19:05:50.638Z,97814.25
2023-04-29T19:08:18.225Z,97816.50
2023-04-29T19:10:46.438Z,97815.84
2023-04-29T19:13:13.947Z,97824.09
2023-04-29T19:15:41.482Z,97819.09
2023-04-29T19:18:09.035Z,97823.00
2023-04-29T19:20:36.560Z,97827.44
2023-04-29T19:23:04.122Z,97828.66
2023-04-29T19:25:31.931Z,97831.88
2023-04-29T19:27:59.507Z,97838.66
2023-04-29T19:30:27.178Z,97834.88
2023-04-29T19:32:54.664Z,97835.44
2023-04-29T19:35:22.241Z,97844.06
2023-04-29T19:37:49.884Z,97843.41
2023-04-29T19:40:17.447Z,97846.28
2023-04-29T19:42:44.932Z,97847.28
2023-04-29T19:45:12.603Z,97850.34
2023-04-29T19:47:40.483Z,97851.53
2023-04-29T19:50:08.382Z,97855.06
2023-04-29T19:52:35.896Z,97854.84
2023-04-29T19:55:04.793Z,97859.03
2023-04-29T19:57:33.002Z,97860.69
2023-04-29T20:00:01.368Z,97862.19
2023-04-29T20:02:28.935Z,97861.78
2023-04-29T20:04:56.539Z,97867.16
2023-04-29T20:07:24.163Z,97858.09
2023-04-29T20:09:51.910Z,97853.19
2023-04-29T20:12:19.573Z,97853.84
2023-04-29T20:14:47.306Z,97859.88
2023-04-29T20:17:16.310Z,97850.50
2023-04-29T20:19:44.440Z,97854.50
2023-04-29T20:22:13.266Z,97855.50
2023-04-29T20:24:41.556Z,97857.66
2023-04-29T20:27:09.111Z,97864.94
2023-04-29T20:29:37.018Z,97865.41
2023-04-29T20:32:05.810Z,97865.41
2023-04-29T20:34:33.401Z,97866.22
2023-04-29T20:37:01.364Z,97868.63
2023-04-29T20:39:29.474Z,97876.50
2023-04-29T20:41:57.460Z,97869.94
2023-04-29T20:44:25.498Z,97866.22
2023-04-29T20:46:53.060Z,97867.28
2023-04-29T20:49:20.763Z,97873.47
2023-04-29T20:51:49.225Z,97868.09
2023-04-29T20:54:16.821Z,97867.91
2023-04-29T20:56:44.399Z,97875.75
2023-04-29T20:59:11.992Z,97871.25
2023-04-29T21:01:39.555Z,97883.25
2023-04-29T21:04:07.251Z,97874.56
2023-04-29T21:06:34.977Z,97880.75
2023-04-29T21:09:02.684Z,97881.41
2023-04-29T21:11:30.216Z,97880.81
2023-04-29T21:13:57.794Z,97886.19
2023-04-29T21:16:25.518Z,97888.81
2023-04-29T21:18:53.288Z,97889.44
2023-04-29T21:21:22.886Z,97882.03
2023-04-29T21:23:50.423Z,97880.81
2023-04-29T21:26:17.906Z,97885.00
2023-04-29T21:28:45.745Z,97881.75
2023-04-29T21:31:16.272Z,97884.63
2023-04-29T21:33:44.838Z,97886.13
2023-04-29T21:36:13.062Z,97869.16
2023-04-29T21:38:42.583Z,97869.63
2023-04-29T21:41:27.214Z,97873.16
2023-04-29T21:44:00.315Z,97878.97
2023-04-29T21:46:29.108Z,97879.16
2023-04-29T21:48:58.953Z,97882.41
2023-04-29T21:51:27.548Z,97878.88
2023-04-29T21:53:55.566Z,97886.75
2023-04-29T21:56:24.505Z,97886.84
2023-04-29T21:58:53.474Z,97889.53
2023-04-29T22:01:29.378Z,97882.88
2023-04-29T22:03:57.424Z,97897.78
2023-04-29T22:06:25.384Z,97886.19
2023-04-29T22:08:53.007Z,97887.06
2023-04-29T22:11:24.517Z,97889.53
2023-04-29T22:13:52.027Z,97893.06
2023-04-29T22:16:19.722Z,97887.88
2023-04-29T22:18:47.294Z,97885.66
2023-04-29T22:21:15.343Z,97884.63
2023-04-29T22:23:43.090Z,97888.78
2023-04-29T22:26:10.604Z,97888.50
2023-04-29T22:28:38.187Z,97894.88
2023-04-29T22:31:06.340Z,97896.75
2023-04-29T22:33:34.898Z,97894.88
2023-04-29T22:36:03.902Z,97906.66
2023-04-29T22:38:31.449Z,97903.78
2023-04-29T22:40:58.986Z,97900.47
2023-04-29T22:43:26.541Z,97901.66
2023-04-29T22:45:56.511Z,97900.19
2023-04-29T22:48:26.636Z,97907.22
2023-04-29T22:50:59.095Z,97903.22
2023-04-29T22:53:26.888Z,97903.69
2023-04-29T22:55:59.086Z,97902.94
2023-04-29T22:58:28.594Z,97900.06
2023-04-29T23:00:57.983Z,97903.22
2023-04-29T23:03:27.115Z,97899.72
2023-04-29T23:05:59.238Z,97901.19
2023-04-29T23:08:27.332Z,97901.00
2023-04-29T23:10:54.866Z,97907.19
2023-04-29T23:13:22.568Z,97905.53
2023-04-29T23:15:50.191Z,97906.38
2023-04-29T23:18:17.725Z,97905.53
2023-04-29T23:20:48.103Z,97907.00
2023-04-29T23:23:15.756Z,97906.19
2023-04-29T23:25:45.173Z,97909.69
2023-04-29T23:28:12.995Z,97914.06
2023-04-29T23:30:40.698Z,97910.72
2023-04-29T23:33:08.611Z,97906.53
2023-04-29T23:35:36.208Z,97910.25
2023-04-29T23:38:03.712Z,97913.31
2023-04-29T23:40:31.865Z,97915.00
2023-04-29T23:42:59.409Z,97916.00
2023-04-29T23:45:26.940Z,97907.13
2023-04-29T23:47:54.555Z,97913.66
2023-04-29T23:50:22.083Z,97912.59
2023-04-29T23:52:49.768Z,97914.63
2023-04-29T23:55:17.419Z,97916.56
2023-04-29T23:57:44.924Z,97916.91
